TimeEET,TemperatureF,Dew PointF,Humidity,Sea Level PressureIn,VisibilityMPH,Wind Direction,Wind SpeedMPH,Gust SpeedMPH,PrecipitationIn,Events,Conditions,WindDirDegrees,DateUTC
12:20 AM,46.4,39.2,76,30.04,-9999.0,NNW,9.2,-,N/A,,Clear,340,2013-03-24 22:20:00
12:50 AM,44.6,39.2,81,30.04,-9999.0,North,11.5,-,N/A,,Clear,350,2013-03-24 22:50:00
1:20 AM,44.6,39.2,81,30.04,-9999.0,North,13.8,-,N/A,,Clear,350,2013-03-24 23:20:00
1:50 AM,44.6,41.0,87,30.04,-9999.0,North,17.3,-,N/A,,Clear,350,2013-03-24 23:50:00
2:00 AM,44,41,85,30.04,6,North,17.3,,,,,350,2013-03-25 00:00:00
2:20 AM,44.6,42.8,93,30.04,-9999.0,North,15.0,-,N/A,,Clear,350,2013-03-25 00:20:00
2:50 AM,46.4,42.8,87,30.04,-9999.0,North,13.8,-,N/A,,Clear,360,2013-03-25 00:50:00
3:20 AM,46.4,42.8,87,30.04,-9999.0,North,12.7,-,N/A,,Clear,10,2013-03-25 01:20:00
3:50 AM,46.4,41.0,81,30.04,-9999.0,North,11.5,-,N/A,,Clear,360,2013-03-25 01:50:00
4:20 AM,46.4,41.0,81,30.04,-9999.0,North,12.7,-,N/A,,Clear,10,2013-03-25 02:20:00
4:50 AM,44.6,41.0,87,30.01,-9999.0,North,11.5,-,N/A,,Clear,10,2013-03-25 02:50:00
5:20 AM,46.4,41.0,81,30.04,-9999.0,North,11.5,-,N/A,,Clear,10,2013-03-25 03:20:00
5:50 AM,44.6,41.0,87,30.04,-9999.0,North,11.5,-,N/A,,Clear,350,2013-03-25 03:50:00
6:20 AM,46.4,41.0,81,30.01,-9999.0,NNE,11.5,-,N/A,,Clear,20,2013-03-25 04:20:00
6:50 AM,46.4,41.0,81,30.04,6.2,North,13.8,-,N/A,,Partly Cloudy,10,2013-03-25 04:50:00
7:20 AM,46.4,41.0,81,30.04,6.2,NNE,11.5,-,N/A,,Scattered Clouds,20,2013-03-25 05:20:00
7:50 AM,48.2,41.0,76,30.04,6.2,NNE,13.8,-,N/A,,Scattered Clouds,20,2013-03-25 05:50:00
8:00 AM,47,41,73,30.05,6,NNE,13.8,,,,Scattered Clouds,20,2013-03-25 06:00:00
8:20 AM,50.0,41.0,71,30.04,6.2,NNE,13.8,-,N/A,,Scattered Clouds,20,2013-03-25 06:20:00
8:50 AM,50.0,41.0,71,30.04,6.2,NNE,12.7,-,N/A,,Scattered Clouds,30,2013-03-25 06:50:00
9:20 AM,51.8,41.0,67,30.01,-9999.0,NNE,13.8,-,N/A,,Clear,20,2013-03-25 07:20:00
9:50 AM,51.8,41.0,67,30.01,-9999.0,NNE,12.7,-,N/A,,Clear,30,2013-03-25 07:50:00
10:20 AM,51.8,39.2,62,30.01,-9999.0,NNE,13.8,-,N/A,,Clear,30,2013-03-25 08:20:00
10:50 AM,53.6,41.0,62,30.01,-9999.0,NE,11.5,-,N/A,,Clear,40,2013-03-25 08:50:00
11:20 AM,53.6,41.0,62,30.01,-9999.0,NNE,11.5,-,N/A,,Clear,30,2013-03-25 09:20:00
11:50 AM,55.4,41.0,58,30.01,6.2,NNE,11.5,-,N/A,,Scattered Clouds,30,2013-03-25 09:50:00
12:20 PM,55.4,39.2,54,29.98,6.2,NNE,11.5,-,N/A,,Mostly Cloudy,30,2013-03-25 10:20:00
12:50 PM,55.4,41.0,58,29.95,6.2,NE,12.7,-,N/A,,Mostly Cloudy,40,2013-03-25 10:50:00
1:20 PM,53.6,39.2,58,29.95,6.2,NNE,15.0,-,N/A,,Mostly Cloudy,30,2013-03-25 11:20:00
1:50 PM,53.6,41.0,62,29.95,6.2,NNE,13.8,-,N/A,,Mostly Cloudy,30,2013-03-25 11:50:00
2:00 PM,53,39,47,29.96,6,NNE,13.8,,,,Partly Cloudy,30,2013-03-25 12:00:00
2:20 PM,50.0,41.0,71,29.92,6.2,NNE,16.1,-,N/A,,Mostly Cloudy,30,2013-03-25 12:20:00
2:50 PM,50.0,41.0,71,29.89,6.2,NNE,18.4,-,N/A,,Mostly Cloudy,20,2013-03-25 12:50:00
3:20 PM,50.0,41.0,71,29.89,6.2,NNE,18.4,-,N/A,,Mostly Cloudy,20,2013-03-25 13:20:00
3:50 PM,50.0,41.0,71,29.89,6.2,NNE,17.3,-,N/A,,Mostly Cloudy,20,2013-03-25 13:50:00
4:20 PM,50.0,41.0,71,29.89,6.2,North,15.0,-,N/A,,Mostly Cloudy,10,2013-03-25 14:20:00
4:50 PM,50.0,41.0,71,29.89,6.2,NNE,15.0,-,N/A,,Mostly Cloudy,20,2013-03-25 14:50:00
5:20 PM,48.2,41.0,76,29.86,6.2,NNE,15.0,-,N/A,,Mostly Cloudy,20,2013-03-25 15:20:00
5:50 PM,48.2,41.0,76,29.83,6.2,NE,13.8,-,N/A,,Mostly Cloudy,40,2013-03-25 15:50:00
6:20 PM,48.2,41.0,76,29.83,6.2,NNE,10.4,-,N/A,,Mostly Cloudy,30,2013-03-25 16:20:00
6:50 PM,48.2,41.0,76,29.83,6.2,North,11.5,-,N/A,,Mostly Cloudy,10,2013-03-25 16:50:00
7:20 PM,48.2,41.0,76,29.83,6.2,North,11.5,-,N/A,,Mostly Cloudy,10,2013-03-25 17:20:00
7:50 PM,48.2,41.0,76,29.83,6.2,North,13.8,-,N/A,,Mostly Cloudy,10,2013-03-25 17:50:00
8:00 PM,49,40,62,29.83,6,North,13.8,,,,Partly Cloudy,10,2013-03-25 18:00:00
8:20 PM,48.2,41.0,76,29.80,6.2,NNE,13.8,-,N/A,,Mostly Cloudy,20,2013-03-25 18:20:00
8:50 PM,48.2,41.0,76,29.80,6.2,NNE,12.7,-,N/A,,Mostly Cloudy,20,2013-03-25 18:50:00
9:20 PM,50.0,41.0,71,29.77,6.2,NNE,11.5,-,N/A,,Mostly Cloudy,20,2013-03-25 19:20:00
9:50 PM,48.2,41.0,76,29.77,6.2,NNE,11.5,-,N/A,,Mostly Cloudy,20,2013-03-25 19:50:00
10:20 PM,48.2,41.0,76,29.74,6.2,NNE,16.1,-,N/A,Rain,Light Rain Showers,20,2013-03-25 20:20:00
10:50 PM,48.2,41.0,76,29.74,6.2,NE,11.5,-,N/A,,Mostly Cloudy,40,2013-03-25 20:50:00
11:20 PM,48.2,41.0,76,29.74,6.2,North,11.5,-,N/A,,Mostly Cloudy,10,2013-03-25 21:20:00
11:50 PM,48.2,41.0,76,29.71,6.2,North,12.7,-,N/A,,Mostly Cloudy,360,2013-03-25 21:50:00